Aviation Digital Data Service (ADDS)

Output produced by TAFs form (0253 UTC 17 January 2018)
found at http://www.aviationweather.gov/adds/tafs/
 
KDHN 170228Z 10SM BKN014 OVC050 05/03 A3040 RMK AO2 T00500028 $
KDHN 162321Z 1700/1724 34010KT P6SM BKN040 
     FM170300 34010G15KT P6SM BKN025 
     FM170600 34010G15KT 6SM -FZRAPL OVC015 
     FM171000 35012G16KT 4SM -SN BKN010 
     FM171400 34015G20KT P6SM SKC